sensor_id;sensor_type;location;lat;lon;timestamp;temperature;humidity
13944;DHT22;7044;53.286;8.534;2023-05-10T00:00:08;15.50;99.90
13944;DHT22;7044;53.286;8.534;2023-05-10T00:02:35;15.50;99.90
13944;DHT22;7044;53.286;8.534;2023-05-10T00:05:03;15.40;99.90
13944;DHT22;7044;53.286;8.534;2023-05-10T00:07:29;15.50;99.90
13944;DHT22;7044;53.286;8.534;2023-05-10T00:09:57;15.40;99.90
13944;DHT22;7044;53.286;8.534;2023-05-10T00:12:24;15.40;99.90
13944;DHT22;7044;53.286;8.534;2023-05-10T00:14:51;15.40;99.90
13944;DHT22;7044;53.286;8.534;2023-05-10T00:17:18;15.40;99.90
13944;DHT22;7044;53.286;8.534;2023-05-10T00:19:44;15.40;99.90
13944;DHT22;7044;53.286;8.534;2023-05-10T00:22:11;15.40;99.90
13944;DHT22;7044;53.286;8.534;2023-05-10T00:24:38;15.30;99.90
13944;DHT22;7044;53.286;8.534;2023-05-10T00:27:06;15.30;99.90
13944;DHT22;7044;53.286;8.534;2023-05-10T00:29:33;15.30;99.90
13944;DHT22;7044;53.286;8.534;2023-05-10T00:32:00;15.40;99.90
13944;DHT22;7044;53.286;8.534;2023-05-10T00:34:27;15.40;99.90
13944;DHT22;7044;53.286;8.534;2023-05-10T00:36:53;15.40;99.90
13944;DHT22;7044;53.286;8.534;2023-05-10T00:39:20;15.40;99.90
13944;DHT22;7044;53.286;8.534;2023-05-10T00:41:47;15.50;99.90
13944;DHT22;7044;53.286;8.534;2023-05-10T00:44:15;15.50;99.90
13944;DHT22;7044;53.286;8.534;2023-05-10T00:46:43;15.60;99.90
13944;DHT22;7044;53.286;8.534;2023-05-10T00:49:11;15.50;99.90
13944;DHT22;7044;53.286;8.534;2023-05-10T00:51:38;15.50;99.90
13944;DHT22;7044;53.286;8.534;2023-05-10T00:54:04;15.50;99.90
13944;DHT22;7044;53.286;8.534;2023-05-10T00:56:32;15.50;99.90
13944;DHT22;7044;53.286;8.534;2023-05-10T00:58:59;15.40;99.90
13944;DHT22;7044;53.286;8.534;2023-05-10T01:01:28;15.40;99.90
13944;DHT22;7044;53.286;8.534;2023-05-10T01:03:55;15.40;99.90
13944;DHT22;7044;53.286;8.534;2023-05-10T01:06:22;15.40;99.90
13944;DHT22;7044;53.286;8.534;2023-05-10T01:08:49;15.40;99.90
13944;DHT22;7044;53.286;8.534;2023-05-10T01:11:16;15.40;99.90
13944;DHT22;7044;53.286;8.534;2023-05-10T01:13:45;15.40;99.90
13944;DHT22;7044;53.286;8.534;2023-05-10T01:16:14;15.40;99.90
13944;DHT22;7044;53.286;8.534;2023-05-10T01:18:43;15.30;99.90
13944;DHT22;7044;53.286;8.534;2023-05-10T01:21:17;15.30;99.90
13944;DHT22;7044;53.286;8.534;2023-05-10T01:27:14;15.30;99.90
13944;DHT22;7044;53.286;8.534;2023-05-10T01:30:21;15.20;99.90
13944;DHT22;7044;53.286;8.534;2023-05-10T01:33:01;15.00;99.90
13944;DHT22;7044;53.286;8.534;2023-05-10T01:35:39;14.90;99.90
13944;DHT22;7044;53.286;8.534;2023-05-10T01:38:13;14.80;99.90
13944;DHT22;7044;53.286;8.534;2023-05-10T01:40:51;14.70;99.90
13944;DHT22;7044;53.286;8.534;2023-05-10T01:43:22;14.60;99.90
13944;DHT22;7044;53.286;8.534;2023-05-10T01:45:59;14.50;99.90
13944;DHT22;7044;53.286;8.534;2023-05-10T01:48:32;14.40;99.90
13944;DHT22;7044;53.286;8.534;2023-05-10T01:50:59;14.40;99.90
13944;DHT22;7044;53.286;8.534;2023-05-10T01:53:27;14.40;99.90
13944;DHT22;7044;53.286;8.534;2023-05-10T01:55:55;14.30;99.90
13944;DHT22;7044;53.286;8.534;2023-05-10T01:58:26;14.30;99.90
13944;DHT22;7044;53.286;8.534;2023-05-10T02:00:54;14.20;99.90
13944;DHT22;7044;53.286;8.534;2023-05-10T02:03:23;14.10;99.90
13944;DHT22;7044;53.286;8.534;2023-05-10T02:05:53;14.20;99.90
13944;DHT22;7044;53.286;8.534;2023-05-10T02:08:21;14.10;99.90
13944;DHT22;7044;53.286;8.534;2023-05-10T02:10:50;14.00;99.90
13944;DHT22;7044;53.286;8.534;2023-05-10T02:13:18;14.00;99.90
13944;DHT22;7044;53.286;8.534;2023-05-10T02:15:47;14.00;99.90
13944;DHT22;7044;53.286;8.534;2023-05-10T02:18:15;13.90;99.90
13944;DHT22;7044;53.286;8.534;2023-05-10T02:20:43;13.90;99.90
13944;DHT22;7044;53.286;8.534;2023-05-10T02:23:14;13.80;99.90
13944;DHT22;7044;53.286;8.534;2023-05-10T02:25:43;13.80;99.90
13944;DHT22;7044;53.286;8.534;2023-05-10T02:28:12;13.80;99.90
13944;DHT22;7044;53.286;8.534;2023-05-10T02:30:39;13.80;99.90
13944;DHT22;7044;53.286;8.534;2023-05-10T02:33:06;13.80;99.90
13944;DHT22;7044;53.286;8.534;2023-05-10T02:35:34;13.70;99.90
13944;DHT22;7044;53.286;8.534;2023-05-10T02:38:01;13.70;99.90
13944;DHT22;7044;53.286;8.534;2023-05-10T02:40:30;13.70;99.90
13944;DHT22;7044;53.286;8.534;2023-05-10T02:42:59;13.60;99.90
13944;DHT22;7044;53.286;8.534;2023-05-10T02:45:30;13.60;99.90
13944;DHT22;7044;53.286;8.534;2023-05-10T02:47:58;13.60;99.90
13944;DHT22;7044;53.286;8.534;2023-05-10T02:50:27;13.50;99.90
13944;DHT22;7044;53.286;8.534;2023-05-10T02:52:59;13.50;99.90
13944;DHT22;7044;53.286;8.534;2023-05-10T02:55:30;13.40;99.90
13944;DHT22;7044;53.286;8.534;2023-05-10T02:58:00;13.40;99.90
13944;DHT22;7044;53.286;8.534;2023-05-10T03:00:28;13.40;99.90
13944;DHT22;7044;53.286;8.534;2023-05-10T03:02:55;13.30;99.90
13944;DHT22;7044;53.286;8.534;2023-05-10T03:05:22;13.40;99.90
13944;DHT22;7044;53.286;8.534;2023-05-10T03:07:49;13.30;99.90
13944;DHT22;7044;53.286;8.534;2023-05-10T03:10:16;13.20;99.90
13944;DHT22;7044;53.286;8.534;2023-05-10T03:12:56;13.20;99.90
13944;DHT22;7044;53.286;8.534;2023-05-10T03:15:36;13.20;99.90
13944;DHT22;7044;53.286;8.534;2023-05-10T03:18:06;13.10;99.90
13944;DHT22;7044;53.286;8.534;2023-05-10T03:20:36;13.10;99.90
13944;DHT22;7044;53.286;8.534;2023-05-10T03:23:12;13.10;99.90
13944;DHT22;7044;53.286;8.534;2023-05-10T03:25:39;13.00;99.90
13944;DHT22;7044;53.286;8.534;2023-05-10T03:28:06;13.00;99.90
13944;DHT22;7044;53.286;8.534;2023-05-10T03:30:35;12.90;99.90
13944;DHT22;7044;53.286;8.534;2023-05-10T03:33:04;12.90;99.90
13944;DHT22;7044;53.286;8.534;2023-05-10T03:35:32;12.80;99.90
13944;DHT22;7044;53.286;8.534;2023-05-10T03:37:59;12.90;99.90
13944;DHT22;7044;53.286;8.534;2023-05-10T03:40:26;13.00;99.90
13944;DHT22;7044;53.286;8.534;2023-05-10T03:42:54;13.00;99.90
13944;DHT22;7044;53.286;8.534;2023-05-10T03:45:21;13.00;99.90
13944;DHT22;7044;53.286;8.534;2023-05-10T03:47:49;12.90;99.90
13944;DHT22;7044;53.286;8.534;2023-05-10T03:50:16;12.90;99.90
13944;DHT22;7044;53.286;8.534;2023-05-10T03:52:43;12.90;99.90
13944;DHT22;7044;53.286;8.534;2023-05-10T03:55:10;12.90;99.90
13944;DHT22;7044;53.286;8.534;2023-05-10T03:57:37;12.90;99.90
13944;DHT22;7044;53.286;8.534;2023-05-10T04:00:05;12.80;99.90
13944;DHT22;7044;53.286;8.534;2023-05-10T04:02:31;12.80;99.90
13944;DHT22;7044;53.286;8.534;2023-05-10T04:05:00;12.90;99.90
13944;DHT22;7044;53.286;8.534;2023-05-10T04:07:26;12.80;99.90
13944;DHT22;7044;53.286;8.534;2023-05-10T04:09:53;12.90;99.90
13944;DHT22;7044;53.286;8.534;2023-05-10T04:12:20;12.80;99.90
13944;DHT22;7044;53.286;8.534;2023-05-10T04:14:47;12.70;99.90
13944;DHT22;7044;53.286;8.534;2023-05-10T04:17:13;12.70;99.90
13944;DHT22;7044;53.286;8.534;2023-05-10T04:19:40;12.70;99.90
13944;DHT22;7044;53.286;8.534;2023-05-10T04:22:09;12.70;99.90
13944;DHT22;7044;53.286;8.534;2023-05-10T04:24:35;12.60;99.90
13944;DHT22;7044;53.286;8.534;2023-05-10T04:27:02;12.60;99.90
13944;DHT22;7044;53.286;8.534;2023-05-10T04:29:29;12.60;99.90
13944;DHT22;7044;53.286;8.534;2023-05-10T04:31:56;12.50;99.90
13944;DHT22;7044;53.286;8.534;2023-05-10T04:34:23;12.40;99.90
13944;DHT22;7044;53.286;8.534;2023-05-10T04:36:49;12.50;99.90
13944;DHT22;7044;53.286;8.534;2023-05-10T04:39:18;12.50;99.90
13944;DHT22;7044;53.286;8.534;2023-05-10T04:41:44;12.60;99.90
13944;DHT22;7044;53.286;8.534;2023-05-10T04:44:11;12.60;99.90
13944;DHT22;7044;53.286;8.534;2023-05-10T04:46:38;12.70;99.90
13944;DHT22;7044;53.286;8.534;2023-05-10T04:49:05;12.70;99.90
13944;DHT22;7044;53.286;8.534;2023-05-10T04:51:32;12.80;99.90
13944;DHT22;7044;53.286;8.534;2023-05-10T04:53:58;12.70;99.90
13944;DHT22;7044;53.286;8.534;2023-05-10T04:56:27;12.70;99.90
13944;DHT22;7044;53.286;8.534;2023-05-10T04:58:54;12.70;99.90
13944;DHT22;7044;53.286;8.534;2023-05-10T05:01:20;12.70;99.90
13944;DHT22;7044;53.286;8.534;2023-05-10T05:03:48;12.70;99.90
13944;DHT22;7044;53.286;8.534;2023-05-10T05:06:15;12.70;99.90
13944;DHT22;7044;53.286;8.534;2023-05-10T05:08:42;12.60;99.90
13944;DHT22;7044;53.286;8.534;2023-05-10T05:11:08;12.70;99.90
13944;DHT22;7044;53.286;8.534;2023-05-10T05:13:37;12.70;99.90
13944;DHT22;7044;53.286;8.534;2023-05-10T05:16:05;12.60;99.90
13944;DHT22;7044;53.286;8.534;2023-05-10T05:18:31;12.60;99.90
13944;DHT22;7044;53.286;8.534;2023-05-10T05:20:58;12.50;99.90
13944;DHT22;7044;53.286;8.534;2023-05-10T05:23:25;12.40;99.90
13944;DHT22;7044;53.286;8.534;2023-05-10T05:25:52;12.50;99.90
13944;DHT22;7044;53.286;8.534;2023-05-10T05:28:19;12.40;99.90
13944;DHT22;7044;53.286;8.534;2023-05-10T05:30:47;12.50;99.90
13944;DHT22;7044;53.286;8.534;2023-05-10T05:33:14;12.40;99.90
13944;DHT22;7044;53.286;8.534;2023-05-10T05:35:41;12.50;99.90
13944;DHT22;7044;53.286;8.534;2023-05-10T05:38:12;12.40;99.90
13944;DHT22;7044;53.286;8.534;2023-05-10T05:40:39;12.50;99.90
13944;DHT22;7044;53.286;8.534;2023-05-10T05:43:06;12.40;99.90
13944;DHT22;7044;53.286;8.534;2023-05-10T05:45:33;12.30;99.90
13944;DHT22;7044;53.286;8.534;2023-05-10T05:48:01;12.40;99.90
13944;DHT22;7044;53.286;8.534;2023-05-10T05:50:28;12.40;99.90
13944;DHT22;7044;53.286;8.534;2023-05-10T05:52:54;12.50;99.90
13944;DHT22;7044;53.286;8.534;2023-05-10T05:55:22;12.50;99.90
13944;DHT22;7044;53.286;8.534;2023-05-10T05:57:49;12.50;99.90
13944;DHT22;7044;53.286;8.534;2023-05-10T06:00:16;12.50;99.90
13944;DHT22;7044;53.286;8.534;2023-05-10T06:02:43;12.60;99.90
13944;DHT22;7044;53.286;8.534;2023-05-10T06:05:11;12.60;99.90
13944;DHT22;7044;53.286;8.534;2023-05-10T06:07:39;12.70;99.90
13944;DHT22;7044;53.286;8.534;2023-05-10T06:10:07;12.70;99.90
13944;DHT22;7044;53.286;8.534;2023-05-10T06:12:34;12.70;99.90
13944;DHT22;7044;53.286;8.534;2023-05-10T06:15:01;12.80;99.90
13944;DHT22;7044;53.286;8.534;2023-05-10T06:17:28;12.90;99.90
13944;DHT22;7044;53.286;8.534;2023-05-10T06:19:56;12.90;99.90
13944;DHT22;7044;53.286;8.534;2023-05-10T06:22:24;12.90;99.90
13944;DHT22;7044;53.286;8.534;2023-05-10T06:24:51;13.00;99.90
13944;DHT22;7044;53.286;8.534;2023-05-10T06:27:18;13.00;99.90
13944;DHT22;7044;53.286;8.534;2023-05-10T06:29:44;13.00;99.90
13944;DHT22;7044;53.286;8.534;2023-05-10T06:32:11;13.00;99.90
13944;DHT22;7044;53.286;8.534;2023-05-10T06:34:38;12.90;99.90
13944;DHT22;7044;53.286;8.534;2023-05-10T06:37:05;13.00;99.90
13944;DHT22;7044;53.286;8.534;2023-05-10T06:39:33;13.00;99.90
13944;DHT22;7044;53.286;8.534;2023-05-10T06:42:00;13.00;99.90
13944;DHT22;7044;53.286;8.534;2023-05-10T06:44:28;13.10;99.90
13944;DHT22;7044;53.286;8.534;2023-05-10T06:46:54;13.10;99.90
13944;DHT22;7044;53.286;8.534;2023-05-10T06:49:21;13.10;99.90
13944;DHT22;7044;53.286;8.534;2023-05-10T06:51:48;13.10;99.90
13944;DHT22;7044;53.286;8.534;2023-05-10T06:54:15;13.20;99.90
13944;DHT22;7044;53.286;8.534;2023-05-10T06:56:43;13.20;99.90
13944;DHT22;7044;53.286;8.534;2023-05-10T06:59:10;13.30;99.90
13944;DHT22;7044;53.286;8.534;2023-05-10T07:01:38;13.30;99.90
13944;DHT22;7044;53.286;8.534;2023-05-10T07:04:06;13.40;99.90
13944;DHT22;7044;53.286;8.534;2023-05-10T07:06:33;13.40;99.90
13944;DHT22;7044;53.286;8.534;2023-05-10T07:09:00;13.50;99.90
13944;DHT22;7044;53.286;8.534;2023-05-10T07:11:26;13.60;99.90
13944;DHT22;7044;53.286;8.534;2023-05-10T07:13:55;13.70;99.90
13944;DHT22;7044;53.286;8.534;2023-05-10T07:16:21;13.80;99.90
13944;DHT22;7044;53.286;8.534;2023-05-10T07:18:48;13.80;99.90
13944;DHT22;7044;53.286;8.534;2023-05-10T07:21:15;13.90;99.90
13944;DHT22;7044;53.286;8.534;2023-05-10T07:23:42;13.90;99.90
13944;DHT22;7044;53.286;8.534;2023-05-10T07:26:09;13.90;99.90
13944;DHT22;7044;53.286;8.534;2023-05-10T07:28:36;14.00;99.90
13944;DHT22;7044;53.286;8.534;2023-05-10T07:31:05;14.00;99.90
13944;DHT22;7044;53.286;8.534;2023-05-10T07:33:31;14.00;99.90
13944;DHT22;7044;53.286;8.534;2023-05-10T07:35:58;14.00;99.90
13944;DHT22;7044;53.286;8.534;2023-05-10T07:38:25;14.00;99.90
13944;DHT22;7044;53.286;8.534;2023-05-10T07:40:52;14.10;99.90
13944;DHT22;7044;53.286;8.534;2023-05-10T07:43:19;14.10;99.90
13944;DHT22;7044;53.286;8.534;2023-05-10T07:45:46;14.10;99.90
13944;DHT22;7044;53.286;8.534;2023-05-10T07:48:14;14.10;99.90
13944;DHT22;7044;53.286;8.534;2023-05-10T07:50:40;14.10;99.90
13944;DHT22;7044;53.286;8.534;2023-05-10T07:53:07;14.20;99.90
13944;DHT22;7044;53.286;8.534;2023-05-10T07:55:34;14.30;99.90
13944;DHT22;7044;53.286;8.534;2023-05-10T07:58:01;14.20;99.90
13944;DHT22;7044;53.286;8.534;2023-05-10T08:00:28;14.20;99.90
13944;DHT22;7044;53.286;8.534;2023-05-10T08:02:54;14.20;99.90
13944;DHT22;7044;53.286;8.534;2023-05-10T08:05:23;14.30;99.90
13944;DHT22;7044;53.286;8.534;2023-05-10T08:07:50;14.40;99.90
13944;DHT22;7044;53.286;8.534;2023-05-10T08:10:16;14.40;99.90
13944;DHT22;7044;53.286;8.534;2023-05-10T08:12:43;14.40;99.90
13944;DHT22;7044;53.286;8.534;2023-05-10T08:15:10;14.50;99.90
13944;DHT22;7044;53.286;8.534;2023-05-10T08:17:37;14.50;99.90
13944;DHT22;7044;53.286;8.534;2023-05-10T08:20:05;14.50;99.90
13944;DHT22;7044;53.286;8.534;2023-05-10T08:22:34;14.50;99.90
13944;DHT22;7044;53.286;8.534;2023-05-10T08:25:01;14.60;99.90
13944;DHT22;7044;53.286;8.534;2023-05-10T08:27:28;14.60;99.90
13944;DHT22;7044;53.286;8.534;2023-05-10T08:29:54;14.60;99.90
13944;DHT22;7044;53.286;8.534;2023-05-10T08:32:21;14.60;99.90
13944;DHT22;7044;53.286;8.534;2023-05-10T08:34:48;14.50;99.90
13944;DHT22;7044;53.286;8.534;2023-05-10T08:37:15;14.40;99.90
13944;DHT22;7044;53.286;8.534;2023-05-10T08:39:43;14.50;99.90
13944;DHT22;7044;53.286;8.534;2023-05-10T08:42:11;14.60;99.90
13944;DHT22;7044;53.286;8.534;2023-05-10T08:44:39;14.70;99.90
13944;DHT22;7044;53.286;8.534;2023-05-10T08:47:06;14.60;99.90
13944;DHT22;7044;53.286;8.534;2023-05-10T08:49:33;14.70;99.90
13944;DHT22;7044;53.286;8.534;2023-05-10T08:52:03;14.80;99.90
13944;DHT22;7044;53.286;8.534;2023-05-10T08:54:31;14.90;99.90
13944;DHT22;7044;53.286;8.534;2023-05-10T08:57:00;15.00;99.90
13944;DHT22;7044;53.286;8.534;2023-05-10T08:59:27;15.00;99.90
13944;DHT22;7044;53.286;8.534;2023-05-10T09:01:56;14.90;99.90
13944;DHT22;7044;53.286;8.534;2023-05-10T09:04:24;14.90;99.90
13944;DHT22;7044;53.286;8.534;2023-05-10T09:06:51;15.00;99.90
13944;DHT22;7044;53.286;8.534;2023-05-10T09:09:18;14.90;99.90
13944;DHT22;7044;53.286;8.534;2023-05-10T09:11:46;14.90;99.90
13944;DHT22;7044;53.286;8.534;2023-05-10T09:14:15;15.00;99.90
13944;DHT22;7044;53.286;8.534;2023-05-10T09:16:42;15.00;99.90
13944;DHT22;7044;53.286;8.534;2023-05-10T09:19:09;15.00;99.90
13944;DHT22;7044;53.286;8.534;2023-05-10T09:21:36;15.00;99.90
13944;DHT22;7044;53.286;8.534;2023-05-10T09:24:04;15.00;99.90
13944;DHT22;7044;53.286;8.534;2023-05-10T09:26:31;14.90;99.90
13944;DHT22;7044;53.286;8.534;2023-05-10T09:28:59;14.90;99.90
13944;DHT22;7044;53.286;8.534;2023-05-10T09:31:44;15.00;99.90
13944;DHT22;7044;53.286;8.534;2023-05-10T09:34:15;15.10;99.90
13944;DHT22;7044;53.286;8.534;2023-05-10T09:36:53;15.10;99.90
13944;DHT22;7044;53.286;8.534;2023-05-10T09:39:20;15.30;99.90
13944;DHT22;7044;53.286;8.534;2023-05-10T09:41:47;15.20;99.90
13944;DHT22;7044;53.286;8.534;2023-05-10T09:44:16;15.20;99.90
13944;DHT22;7044;53.286;8.534;2023-05-10T09:46:50;15.10;99.90
13944;DHT22;7044;53.286;8.534;2023-05-10T09:49:18;15.20;99.90
13944;DHT22;7044;53.286;8.534;2023-05-10T09:51:45;15.30;99.90
13944;DHT22;7044;53.286;8.534;2023-05-10T09:54:13;15.30;99.90
13944;DHT22;7044;53.286;8.534;2023-05-10T09:56:40;15.30;99.90
13944;DHT22;7044;53.286;8.534;2023-05-10T09:59:11;15.30;99.90
13944;DHT22;7044;53.286;8.534;2023-05-10T10:01:38;15.20;99.90
13944;DHT22;7044;53.286;8.534;2023-05-10T10:04:09;15.10;99.90
13944;DHT22;7044;53.286;8.534;2023-05-10T10:06:36;15.10;99.90
13944;DHT22;7044;53.286;8.534;2023-05-10T10:09:04;15.10;99.90
13944;DHT22;7044;53.286;8.534;2023-05-10T10:11:31;15.10;99.90
13944;DHT22;7044;53.286;8.534;2023-05-10T10:13:58;15.10;99.90
13944;DHT22;7044;53.286;8.534;2023-05-10T10:16:26;15.10;99.90
13944;DHT22;7044;53.286;8.534;2023-05-10T10:18:53;15.00;99.90
13944;DHT22;7044;53.286;8.534;2023-05-10T10:21:22;15.10;99.90
13944;DHT22;7044;53.286;8.534;2023-05-10T10:23:49;15.00;99.90
13944;DHT22;7044;53.286;8.534;2023-05-10T10:26:17;15.10;99.90
13944;DHT22;7044;53.286;8.534;2023-05-10T10:28:51;15.20;99.90
13944;DHT22;7044;53.286;8.534;2023-05-10T10:31:26;15.20;99.90
13944;DHT22;7044;53.286;8.534;2023-05-10T10:34:00;15.20;99.90
13944;DHT22;7044;53.286;8.534;2023-05-10T10:36:29;15.20;99.90
13944;DHT22;7044;53.286;8.534;2023-05-10T10:38:59;15.30;99.90
13944;DHT22;7044;53.286;8.534;2023-05-10T10:41:32;15.40;99.90
13944;DHT22;7044;53.286;8.534;2023-05-10T10:44:24;15.50;99.90
13944;DHT22;7044;53.286;8.534;2023-05-10T10:47:02;15.70;99.90
13944;DHT22;7044;53.286;8.534;2023-05-10T10:49:31;15.80;99.90
13944;DHT22;7044;53.286;8.534;2023-05-10T10:52:23;15.80;99.90
13944;DHT22;7044;53.286;8.534;2023-05-10T10:54:53;15.90;99.90
13944;DHT22;7044;53.286;8.534;2023-05-10T10:57:24;16.00;99.90
13944;DHT22;7044;53.286;8.534;2023-05-10T10:59:53;16.10;99.90
13944;DHT22;7044;53.286;8.534;2023-05-10T11:02:34;16.10;99.90
13944;DHT22;7044;53.286;8.534;2023-05-10T11:05:24;15.90;99.90
13944;DHT22;7044;53.286;8.534;2023-05-10T11:07:53;15.90;97.40
13944;DHT22;7044;53.286;8.534;2023-05-10T11:10:20;15.90;97.50
13944;DHT22;7044;53.286;8.534;2023-05-10T11:12:59;15.80;99.90
13944;DHT22;7044;53.286;8.534;2023-05-10T11:15:31;15.80;99.90
13944;DHT22;7044;53.286;8.534;2023-05-10T11:17:58;15.70;99.90
13944;DHT22;7044;53.286;8.534;2023-05-10T11:20:27;15.70;99.90
13944;DHT22;7044;53.286;8.534;2023-05-10T11:23:11;15.60;99.90
13944;DHT22;7044;53.286;8.534;2023-05-10T11:25:41;15.70;99.90
13944;DHT22;7044;53.286;8.534;2023-05-10T11:28:09;15.70;99.90
13944;DHT22;7044;53.286;8.534;2023-05-10T11:30:37;15.70;99.90
13944;DHT22;7044;53.286;8.534;2023-05-10T11:33:05;15.60;99.90
13944;DHT22;7044;53.286;8.534;2023-05-10T11:35:37;15.50;99.90
13944;DHT22;7044;53.286;8.534;2023-05-10T11:38:06;15.30;99.90
13944;DHT22;7044;53.286;8.534;2023-05-10T11:40:33;15.30;99.90
13944;DHT22;7044;53.286;8.534;2023-05-10T11:43:01;15.30;99.90
13944;DHT22;7044;53.286;8.534;2023-05-10T11:45:28;15.20;99.90
13944;DHT22;7044;53.286;8.534;2023-05-10T11:47:57;15.30;99.90
13944;DHT22;7044;53.286;8.534;2023-05-10T11:50:24;15.40;99.90
13944;DHT22;7044;53.286;8.534;2023-05-10T11:52:51;15.50;99.90
13944;DHT22;7044;53.286;8.534;2023-05-10T11:55:20;15.60;99.90
13944;DHT22;7044;53.286;8.534;2023-05-10T11:57:47;15.70;99.90
13944;DHT22;7044;53.286;8.534;2023-05-10T12:00:14;15.70;99.90
13944;DHT22;7044;53.286;8.534;2023-05-10T12:02:41;15.70;99.90
13944;DHT22;7044;53.286;8.534;2023-05-10T12:05:08;15.60;99.90
13944;DHT22;7044;53.286;8.534;2023-05-10T12:07:36;15.50;99.90
13944;DHT22;7044;53.286;8.534;2023-05-10T12:10:04;15.30;99.90
13944;DHT22;7044;53.286;8.534;2023-05-10T12:12:37;15.30;99.90
13944;DHT22;7044;53.286;8.534;2023-05-10T12:15:05;15.40;99.90
13944;DHT22;7044;53.286;8.534;2023-05-10T12:17:37;15.60;99.90
13944;DHT22;7044;53.286;8.534;2023-05-10T12:20:14;15.70;99.90
13944;DHT22;7044;53.286;8.534;2023-05-10T12:22:44;15.60;99.90
13944;DHT22;7044;53.286;8.534;2023-05-10T12:25:11;15.40;99.90
13944;DHT22;7044;53.286;8.534;2023-05-10T12:27:39;15.30;99.90
13944;DHT22;7044;53.286;8.534;2023-05-10T12:30:07;15.30;99.90
13944;DHT22;7044;53.286;8.534;2023-05-10T12:32:38;15.40;99.90
13944;DHT22;7044;53.286;8.534;2023-05-10T12:35:05;15.40;99.90
13944;DHT22;7044;53.286;8.534;2023-05-10T12:37:32;15.40;99.90
13944;DHT22;7044;53.286;8.534;2023-05-10T12:40:01;15.50;99.90
13944;DHT22;7044;53.286;8.534;2023-05-10T12:42:30;15.40;99.90
13944;DHT22;7044;53.286;8.534;2023-05-10T12:44:59;15.30;99.90
13944;DHT22;7044;53.286;8.534;2023-05-10T12:47:25;15.20;99.90
13944;DHT22;7044;53.286;8.534;2023-05-10T12:49:52;15.10;99.90
13944;DHT22;7044;53.286;8.534;2023-05-10T12:52:19;15.10;99.90
13944;DHT22;7044;53.286;8.534;2023-05-10T12:54:46;15.00;99.90
13944;DHT22;7044;53.286;8.534;2023-05-10T12:57:13;15.10;99.90
13944;DHT22;7044;53.286;8.534;2023-05-10T12:59:40;15.00;99.90
13944;DHT22;7044;53.286;8.534;2023-05-10T13:02:08;15.00;99.90
13944;DHT22;7044;53.286;8.534;2023-05-10T13:04:35;15.00;99.90
13944;DHT22;7044;53.286;8.534;2023-05-10T13:07:05;15.00;99.90
13944;DHT22;7044;53.286;8.534;2023-05-10T13:09:31;14.90;99.90
13944;DHT22;7044;53.286;8.534;2023-05-10T13:11:58;14.80;99.90
13944;DHT22;7044;53.286;8.534;2023-05-10T13:14:25;14.80;99.90
13944;DHT22;7044;53.286;8.534;2023-05-10T13:16:52;14.70;99.90
13944;DHT22;7044;53.286;8.534;2023-05-10T13:19:21;14.70;99.90
13944;DHT22;7044;53.286;8.534;2023-05-10T13:21:47;14.70;99.90
13944;DHT22;7044;53.286;8.534;2023-05-10T13:24:14;14.80;99.90
13944;DHT22;7044;53.286;8.534;2023-05-10T13:26:42;14.70;99.90
13944;DHT22;7044;53.286;8.534;2023-05-10T13:29:09;14.80;99.90
13944;DHT22;7044;53.286;8.534;2023-05-10T13:31:36;14.80;99.90
13944;DHT22;7044;53.286;8.534;2023-05-10T13:34:04;14.80;99.90
13944;DHT22;7044;53.286;8.534;2023-05-10T13:36:33;14.70;99.90
13944;DHT22;7044;53.286;8.534;2023-05-10T13:38:59;14.60;99.90
13944;DHT22;7044;53.286;8.534;2023-05-10T13:41:28;14.70;99.90
13944;DHT22;7044;53.286;8.534;2023-05-10T13:43:54;14.40;99.90
13944;DHT22;7044;53.286;8.534;2023-05-10T13:46:21;14.60;99.90
13944;DHT22;7044;53.286;8.534;2023-05-10T13:48:48;14.60;99.90
13944;DHT22;7044;53.286;8.534;2023-05-10T13:51:15;14.60;99.90
13944;DHT22;7044;53.286;8.534;2023-05-10T13:53:43;14.60;99.90
13944;DHT22;7044;53.286;8.534;2023-05-10T13:56:10;14.60;99.90
13944;DHT22;7044;53.286;8.534;2023-05-10T13:58:37;14.50;99.90
13944;DHT22;7044;53.286;8.534;2023-05-10T14:01:04;14.50;99.90
13944;DHT22;7044;53.286;8.534;2023-05-10T14:03:31;14.40;99.90
13944;DHT22;7044;53.286;8.534;2023-05-10T14:05:58;14.50;99.90
13944;DHT22;7044;53.286;8.534;2023-05-10T14:08:24;14.40;99.90
13944;DHT22;7044;53.286;8.534;2023-05-10T14:10:54;14.50;99.90
13944;DHT22;7044;53.286;8.534;2023-05-10T14:13:21;14.50;99.90
13944;DHT22;7044;53.286;8.534;2023-05-10T14:15:48;14.40;99.90
13944;DHT22;7044;53.286;8.534;2023-05-10T14:18:15;14.30;99.90
13944;DHT22;7044;53.286;8.534;2023-05-10T14:20:42;14.50;99.90
13944;DHT22;7044;53.286;8.534;2023-05-10T14:23:08;14.60;99.90
13944;DHT22;7044;53.286;8.534;2023-05-10T14:25:35;14.80;99.90
13944;DHT22;7044;53.286;8.534;2023-05-10T14:28:05;14.90;99.90
13944;DHT22;7044;53.286;8.534;2023-05-10T14:30:32;14.90;99.90
13944;DHT22;7044;53.286;8.534;2023-05-10T14:32:59;14.90;99.90
13944;DHT22;7044;53.286;8.534;2023-05-10T14:35:26;14.90;99.90
13944;DHT22;7044;53.286;8.534;2023-05-10T14:37:53;14.90;99.90
13944;DHT22;7044;53.286;8.534;2023-05-10T14:40:20;14.90;99.90
13944;DHT22;7044;53.286;8.534;2023-05-10T14:42:47;14.90;99.90
13944;DHT22;7044;53.286;8.534;2023-05-10T14:45:15;15.00;99.90
13944;DHT22;7044;53.286;8.534;2023-05-10T14:47:42;14.90;99.90
13944;DHT22;7044;53.286;8.534;2023-05-10T14:50:09;15.00;99.90
13944;DHT22;7044;53.286;8.534;2023-05-10T14:52:36;14.90;99.90
13944;DHT22;7044;53.286;8.534;2023-05-10T14:55:03;14.80;99.90
13944;DHT22;7044;53.286;8.534;2023-05-10T14:57:30;14.90;99.90
13944;DHT22;7044;53.286;8.534;2023-05-10T14:59:57;14.80;99.90
13944;DHT22;7044;53.286;8.534;2023-05-10T15:02:25;14.70;99.90
13944;DHT22;7044;53.286;8.534;2023-05-10T15:04:52;14.60;99.90
13944;DHT22;7044;53.286;8.534;2023-05-10T15:07:19;14.50;99.90
13944;DHT22;7044;53.286;8.534;2023-05-10T15:09:46;14.50;99.90
13944;DHT22;7044;53.286;8.534;2023-05-10T15:12:12;14.50;99.90
13944;DHT22;7044;53.286;8.534;2023-05-10T15:14:39;14.40;99.90
13944;DHT22;7044;53.286;8.534;2023-05-10T15:17:06;14.30;99.90
13944;DHT22;7044;53.286;8.534;2023-05-10T15:19:34;14.20;99.90
13944;DHT22;7044;53.286;8.534;2023-05-10T15:22:01;14.30;99.90
13944;DHT22;7044;53.286;8.534;2023-05-10T15:24:28;14.20;99.90
13944;DHT22;7044;53.286;8.534;2023-05-10T15:26:55;14.10;99.90
13944;DHT22;7044;53.286;8.534;2023-05-10T15:29:22;14.10;99.90
13944;DHT22;7044;53.286;8.534;2023-05-10T15:31:49;14.20;99.90
13944;DHT22;7044;53.286;8.534;2023-05-10T15:34:17;14.20;99.90
13944;DHT22;7044;53.286;8.534;2023-05-10T15:36:45;14.20;99.90
13944;DHT22;7044;53.286;8.534;2023-05-10T15:39:12;14.30;99.90
13944;DHT22;7044;53.286;8.534;2023-05-10T15:41:39;14.30;99.90
13944;DHT22;7044;53.286;8.534;2023-05-10T15:44:06;14.30;99.90
13944;DHT22;7044;53.286;8.534;2023-05-10T15:46:32;14.30;99.90
13944;DHT22;7044;53.286;8.534;2023-05-10T15:48:59;14.30;99.90
13944;DHT22;7044;53.286;8.534;2023-05-10T15:51:26;14.40;99.90
13944;DHT22;7044;53.286;8.534;2023-05-10T15:53:54;14.30;99.90